createdAt,value
2022-08-23T00:01:29.176Z,0.30
2022-08-23T00:06:23.865Z,0.30
2022-08-23T00:11:29.767Z,0.30
2022-08-23T00:16:22.294Z,0.20
2022-08-23T00:21:13.973Z,0.20
2022-08-23T00:26:06.236Z,0.20
2022-08-23T00:30:59.167Z,0.22
2022-08-23T00:35:50.798Z,0.30
2022-08-23T00:40:53.427Z,0.30
2022-08-23T00:46:11.632Z,0.38
2022-08-23T00:56:17.991Z,0.30
2022-08-23T01:01:09.966Z,0.30
2022-08-23T01:06:13.714Z,0.30
2022-08-23T01:11:22.352Z,0.25
2022-08-23T01:16:19.014Z,0.30
2022-08-23T01:21:16.899Z,0.20
2022-08-23T01:26:10.435Z,0.40
2022-08-23T01:31:03.116Z,0.40
2022-08-23T01:35:59.090Z,0.30
2022-08-23T01:40:52.914Z,0.40
2022-08-23T01:45:44.706Z,0.30
2022-08-23T01:55:28.275Z,0.30
2022-08-23T02:00:23.138Z,0.40
2022-08-23T02:05:17.323Z,0.30
2022-08-23T02:10:11.608Z,0.22
2022-08-23T02:15:05.161Z,0.20
2022-08-23T02:19:57.415Z,0.20
2022-08-23T02:24:49.282Z,0.20
2022-08-23T02:29:42.045Z,0.22
2022-08-23T02:34:36.503Z,0.20
2022-08-23T02:39:28.790Z,0.20
2022-08-23T02:44:20.634Z,0.20
2022-08-23T02:49:12.600Z,0.20
2022-08-23T02:54:05.515Z,0.30
2022-08-23T02:58:57.442Z,0.32
2022-08-23T03:03:49.194Z,0.35
2022-08-23T03:08:41.501Z,0.22
2022-08-23T03:13:33.736Z,0.30
2022-08-23T03:18:25.318Z,0.40
2022-08-23T03:23:17.127Z,0.50
2022-08-23T03:28:08.906Z,0.90
2022-08-23T03:33:01.617Z,1.00
2022-08-23T03:37:55.352Z,0.90
2022-08-23T03:42:47.090Z,1.30
2022-08-23T03:47:39.509Z,1.73
2022-08-23T03:52:31.430Z,2.08
2022-08-23T03:57:23.101Z,2.00
2022-08-23T04:02:15.911Z,2.58
2022-08-23T04:07:07.961Z,1.58
2022-08-23T04:11:59.672Z,1.10
2022-08-23T04:16:51.356Z,0.85
2022-08-23T04:21:48.468Z,1.00
2022-08-23T04:26:41.434Z,1.08
2022-08-23T04:31:35.944Z,1.00
2022-08-23T04:36:34.793Z,1.67
2022-08-23T04:41:47.008Z,1.92
2022-08-23T04:46:39.911Z,2.88
2022-08-23T04:51:31.637Z,2.83
2022-08-23T04:56:26.289Z,3.10
2022-08-23T05:01:18.037Z,2.08
2022-08-23T05:06:09.736Z,1.77
2022-08-23T05:11:03.614Z,1.63
2022-08-23T05:15:55.322Z,2.35
2022-08-23T05:20:48.740Z,1.83
2022-08-23T05:25:53.231Z,2.00
2022-08-23T05:30:56.356Z,1.30
2022-08-23T05:35:48.740Z,1.05
2022-08-23T05:40:40.457Z,1.00
2022-08-23T05:45:32.032Z,1.30
2022-08-23T05:50:24.358Z,1.20
2022-08-23T05:55:16.082Z,1.10
2022-08-23T06:00:13.300Z,1.08
2022-08-23T06:05:05.602Z,0.88
2022-08-23T06:09:57.917Z,0.60
2022-08-23T06:14:49.596Z,0.70
2022-08-23T06:19:41.256Z,0.60
2022-08-23T06:24:33.395Z,0.70
2022-08-23T06:29:25.065Z,0.60
2022-08-23T06:34:19.150Z,0.50
2022-08-23T06:39:11.523Z,0.50
2022-08-23T06:44:04.103Z,0.40
2022-08-23T06:48:57.701Z,0.45
2022-08-23T06:53:50.518Z,0.40
2022-08-23T06:58:42.183Z,0.43
2022-08-23T07:03:36.602Z,0.40
2022-08-23T07:08:28.585Z,0.40
2022-08-23T07:13:20.179Z,0.30
2022-08-23T07:18:13.677Z,0.40
2022-08-23T07:23:05.460Z,0.40
2022-08-23T07:27:57.266Z,0.30
2022-08-23T07:32:49.455Z,0.32
2022-08-23T07:37:41.379Z,0.50
2022-08-23T07:42:33.685Z,0.73
2022-08-23T07:47:25.424Z,0.40
2022-08-23T07:52:17.180Z,0.50
2022-08-23T07:57:09.303Z,0.70
2022-08-23T08:02:01.014Z,0.40
2022-08-23T08:07:16.952Z,0.55
2022-08-23T08:12:04.894Z,0.40
2022-08-23T08:16:58.818Z,0.38
2022-08-23T08:21:51.328Z,0.55
2022-08-23T08:26:44.153Z,0.30
2022-08-23T08:31:38.184Z,0.50
2022-08-23T08:36:37.288Z,0.40
2022-08-23T08:42:04.320Z,0.30
2022-08-23T08:46:59.899Z,0.40
2022-08-23T08:52:16.634Z,0.47
2022-08-23T08:57:11.520Z,0.60
2022-08-23T09:02:07.707Z,0.40
2022-08-23T09:07:31.447Z,0.47
2022-08-23T09:12:46.758Z,0.57
2022-08-23T09:18:10.651Z,0.55
2022-08-23T09:23:17.198Z,0.70
2022-08-23T09:28:08.891Z,0.70
2022-08-23T09:33:16.531Z,0.80
2022-08-23T09:38:14.126Z,0.90
2022-08-23T09:43:13.232Z,0.77
2022-08-23T09:48:06.750Z,0.70
2022-08-23T09:53:04.351Z,0.60
2022-08-23T09:57:56.265Z,0.70
2022-08-23T10:02:48.204Z,0.80
2022-08-23T10:07:43.247Z,1.17
2022-08-23T10:12:35.152Z,1.00
2022-08-23T10:17:43.936Z,0.60
2022-08-23T10:23:06.519Z,0.70
2022-08-23T10:28:23.007Z,0.80
2022-08-23T10:33:29.823Z,1.70
2022-08-23T10:38:46.305Z,1.30
2022-08-23T10:43:56.919Z,0.82
2022-08-23T10:48:54.881Z,1.10
2022-08-23T10:53:56.839Z,1.00
2022-08-23T10:58:56.510Z,1.00
2022-08-23T11:04:27.074Z,1.20
2022-08-23T11:09:21.549Z,0.93
2022-08-23T11:14:45.560Z,0.60
2022-08-23T11:19:54.019Z,0.70
2022-08-23T11:24:56.189Z,0.60
2022-08-23T11:29:47.956Z,0.63
2022-08-23T11:35:00.540Z,1.23
2022-08-23T11:39:58.194Z,0.60
2022-08-23T11:44:50.538Z,0.85
2022-08-23T11:50:12.052Z,0.85
2022-08-23T11:55:42.362Z,0.70
2022-08-23T12:00:55.435Z,0.95
2022-08-23T12:05:52.894Z,0.93
2022-08-23T12:10:45.306Z,1.20
2022-08-23T12:16:16.637Z,1.40
2022-08-23T12:21:30.053Z,1.70
2022-08-23T12:26:59.160Z,1.88
2022-08-23T12:32:02.866Z,1.45
2022-08-23T12:37:15.155Z,1.20
2022-08-23T12:42:16.225Z,1.02
2022-08-23T12:47:15.783Z,1.30
2022-08-23T12:52:12.334Z,1.13
2022-08-23T12:57:11.646Z,1.08
2022-08-23T13:02:08.670Z,1.23
2022-08-23T13:07:05.885Z,0.95
2022-08-23T13:11:59.054Z,0.60
2022-08-23T13:16:51.446Z,0.70
2022-08-23T13:21:43.988Z,0.55
2022-08-23T13:26:39.123Z,0.60
2022-08-23T13:32:03.213Z,0.60
2022-08-23T13:36:58.927Z,0.80
2022-08-23T13:41:50.821Z,0.70
2022-08-23T13:46:47.611Z,0.50
2022-08-23T13:56:37.310Z,0.60
2022-08-23T14:01:29.956Z,0.60
2022-08-23T14:06:21.716Z,0.60
2022-08-23T14:11:15.989Z,0.30
2022-08-23T14:21:21.054Z,0.20
2022-08-23T14:26:17.426Z,0.30
2022-08-23T14:31:09.148Z,0.20
2022-08-23T14:36:00.918Z,0.20
2022-08-23T14:40:59.049Z,0.20
2022-08-23T14:45:51.280Z,0.20
2022-08-23T14:50:43.145Z,0.30
2022-08-23T14:55:34.889Z,0.22
2022-08-23T15:00:27.032Z,0.20
2022-08-23T15:05:19.382Z,0.20
2022-08-23T15:10:49.754Z,0.20
2022-08-23T15:15:25.577Z,0.20
2022-08-23T15:20:17.314Z,0.20
2022-08-23T15:25:09.148Z,0.30
2022-08-23T15:30:00.817Z,0.30
2022-08-23T15:34:52.578Z,0.40
2022-08-23T15:39:44.415Z,0.30
2022-08-23T15:44:36.077Z,0.57
2022-08-23T15:49:29.288Z,0.50
2022-08-23T15:54:23.677Z,0.50
2022-08-23T15:59:19.193Z,0.50
2022-08-23T16:04:11.364Z,0.50
2022-08-23T16:09:05.256Z,0.50
2022-08-23T16:13:56.989Z,0.50
2022-08-23T16:18:51.668Z,0.50
2022-08-23T16:23:44.450Z,0.50
2022-08-23T16:28:36.074Z,0.47
2022-08-23T16:33:27.901Z,0.50
2022-08-23T16:38:19.654Z,0.45
2022-08-23T16:43:11.337Z,0.50
2022-08-23T16:48:05.256Z,0.50
2022-08-23T16:52:56.970Z,0.60
2022-08-23T16:57:48.590Z,0.70
2022-08-23T17:02:41.127Z,0.50
2022-08-23T17:07:32.939Z,0.60
2022-08-23T17:12:26.026Z,0.50
2022-08-23T17:17:18.329Z,0.60
2022-08-23T17:22:10.715Z,0.50
2022-08-23T17:27:02.378Z,0.40
2022-08-23T17:31:54.286Z,0.50
2022-08-23T17:36:52.323Z,0.75
2022-08-23T17:41:45.497Z,0.50
2022-08-23T17:46:40.471Z,0.60
2022-08-23T17:51:33.143Z,0.43
2022-08-23T17:56:24.969Z,0.50
2022-08-23T18:01:18.830Z,0.45
2022-08-23T18:06:16.723Z,0.40
2022-08-23T18:11:08.851Z,0.50
2022-08-23T18:16:01.292Z,0.47
2022-08-23T18:20:53.088Z,0.47
2022-08-23T18:25:45.829Z,0.35
2022-08-23T18:30:50.121Z,0.40
2022-08-23T18:35:43.533Z,0.30
2022-08-23T18:40:45.392Z,0.45
2022-08-23T18:45:38.563Z,0.63
2022-08-23T18:50:30.210Z,0.40
2022-08-23T18:55:21.898Z,0.43
2022-08-23T19:00:13.837Z,0.60
2022-08-23T19:05:06.020Z,0.50
2022-08-23T19:09:57.811Z,0.40
2022-08-23T19:14:49.626Z,0.40
2022-08-23T19:19:41.590Z,0.50
2022-08-23T19:24:33.927Z,0.77
2022-08-23T19:29:28.437Z,0.40
2022-08-23T19:34:22.258Z,0.40
2022-08-23T19:39:14.489Z,0.50
2022-08-23T19:44:07.990Z,0.45
2022-08-23T19:49:00.219Z,0.50
2022-08-23T19:54:04.733Z,0.40
2022-08-23T19:59:03.214Z,0.40
2022-08-23T20:03:55.121Z,0.47
2022-08-23T20:08:46.926Z,0.50
2022-08-23T20:13:38.586Z,0.60
2022-08-23T20:18:30.251Z,0.50
2022-08-23T20:23:44.919Z,0.60
2022-08-23T20:28:36.941Z,0.60
2022-08-23T20:33:28.582Z,0.45
2022-08-23T20:38:33.216Z,0.50
2022-08-23T20:43:25.726Z,0.50
2022-08-23T20:48:18.819Z,0.60
2022-08-23T20:53:12.841Z,0.60
2022-08-23T20:58:04.954Z,1.00
2022-08-23T21:02:56.938Z,0.50
2022-08-23T21:07:48.931Z,6.38
2022-08-23T21:12:41.249Z,1.20
2022-08-23T21:17:32.935Z,0.70
2022-08-23T21:22:32.222Z,0.70
2022-08-23T21:27:24.038Z,1.35
2022-08-23T21:32:15.847Z,1.35
2022-08-23T21:37:07.558Z,1.45
2022-08-23T21:41:59.155Z,0.80
2022-08-23T21:46:50.818Z,0.50
2022-08-23T21:51:43.703Z,0.80
2022-08-23T21:56:37.086Z,0.40
2022-08-23T22:01:31.057Z,0.50
2022-08-23T22:06:23.126Z,0.40
2022-08-23T22:11:15.798Z,0.35
2022-08-23T22:16:07.950Z,0.40
2022-08-23T22:20:59.994Z,0.32
2022-08-23T22:25:51.779Z,0.40
2022-08-23T22:30:43.757Z,0.45
2022-08-23T22:35:36.384Z,0.60
2022-08-23T22:40:28.275Z,0.40
2022-08-23T22:45:20.006Z,0.30
2022-08-23T22:50:12.524Z,0.30
2022-08-23T22:55:05.269Z,0.20
2022-08-23T22:59:57.853Z,0.40
2022-08-23T23:04:50.309Z,0.25
2022-08-23T23:09:41.945Z,0.40
2022-08-23T23:14:33.640Z,0.40
2022-08-23T23:19:45.798Z,0.40
2022-08-23T23:24:40.222Z,0.40
2022-08-23T23:29:32.513Z,0.40
2022-08-23T23:34:24.291Z,0.50
2022-08-23T23:39:16.438Z,0.40
2022-08-23T23:44:08.863Z,0.40
2022-08-23T23:49:00.778Z,0.52
2022-08-23T23:53:53.726Z,0.40
2022-08-23T23:58:48.365Z,0.40
